Time;durP1;ratioP1;P1;durP2;ratioP2;P2;SDS_P1;SDS_P2;PMS_P1;PMS_P2;Temp;Humidity;BMP_temperature;BMP_pressure;BME280_temperature;BME280_humidity;BME280_pressure;Samples;Min_cycle;Max_cycle;Signal;HPM_P1;HPM_P2
2022/08/08 00:01:30;;;;;;;;;3.75;2.50;;;;;23.35;25.90;101729.06;5002139;28;45218;-61
2022/08/08 00:04:06;;;;;;;;;3.00;3.00;;;;;23.35;25.71;101739.78;4995701;28;45176;-61
2022/08/08 00:06:57;;;;;;;;;3.00;2.50;;;;;23.30;25.95;101733.78;5001466;28;45831;-61
2022/08/08 00:09:51;;;;;;;;;3.75;3.00;;;;;23.20;26.02;101725.34;4984979;28;45329;-61
2022/08/08 00:12:24;;;;;;;;;4.00;4.00;;;;;23.22;25.96;101733.34;5036593;28;45482;-62
2022/08/08 00:15:11;;;;;;;;;4.00;4.00;;;;;23.16;26.18;101731.84;5036417;28;45412;-61
2022/08/08 00:18:00;;;;;;;;;4.00;4.00;;;;;23.13;26.12;101734.66;5021107;28;45518;-62
2022/08/08 00:20:34;;;;;;;;;4.50;4.00;;;;;23.08;26.36;101725.09;5019551;28;45198;-62
2022/08/08 00:23:09;;;;;;;;;3.00;3.00;;;;;23.05;26.17;101726.97;5020928;28;45233;-61
2022/08/08 00:25:40;;;;;;;;;3.00;3.00;;;;;23.01;26.35;101728.09;5021188;28;45456;-61
2022/08/08 00:28:08;;;;;;;;;4.00;4.00;;;;;22.99;26.47;101727.31;5020762;28;46367;-61
2022/08/08 00:30:39;;;;;;;;;3.00;3.00;;;;;22.98;26.53;101738.09;5021027;28;45355;-61
2022/08/08 00:33:12;;;;;;;;;3.00;3.00;;;;;22.95;26.79;101725.72;5020746;28;45313;-61
2022/08/08 00:35:43;;;;;;;;;3.25;3.25;;;;;22.90;26.54;101717.06;5020990;28;45184;-61
2022/08/08 00:38:46;;;;;;;;;2.00;1.75;;;;;22.88;26.59;101725.19;5020400;28;46190;-61
2022/08/08 00:41:21;;;;;;;;;3.00;3.00;;;;;22.85;26.63;101716.44;5019302;28;45541;-62
2022/08/08 00:44:21;;;;;;;;;4.50;3.50;;;;;22.80;27.14;101729.19;5019633;28;45403;-61
2022/08/08 00:47:17;;;;;;;;;3.00;2.00;;;;;22.73;27.15;101721.47;5020782;28;45278;-62
2022/08/08 00:50:13;;;;;;;;;4.00;4.00;;;;;22.71;26.99;101723.34;5035728;28;47591;-62
2022/08/08 00:52:57;;;;;;;;;4.25;4.25;;;;;22.68;26.90;101723.50;5015362;28;45451;-62
2022/08/08 00:55:57;;;;;;;;;4.00;3.00;;;;;22.64;27.29;101718.38;5001142;28;45293;-61
2022/08/08 00:58:37;;;;;;;;;3.25;3.25;;;;;22.60;27.19;101720.31;5000831;28;45297;-61
2022/08/08 01:01:25;;;;;;;;;3.00;3.00;;;;;22.57;27.25;101715.13;5005897;28;46971;-61
2022/08/08 01:04:22;;;;;;;;;3.00;3.00;;;;;22.53;27.48;101722.44;5003503;28;45392;-60
2022/08/08 01:07:12;;;;;;;;;5.00;3.50;;;;;22.49;27.39;101718.19;5000425;28;45262;-58
2022/08/08 01:09:40;;;;;;;;;4.00;4.00;;;;;22.46;27.70;101712.13;5000589;28;45238;-58
2022/08/08 01:12:27;;;;;;;;;3.00;3.00;;;;;22.43;28.01;101713.13;4999750;28;46298;-57
2022/08/08 01:15:43;;;;;;;;;4.00;3.00;;;;;22.41;27.75;101715.00;4999808;28;45382;-58
2022/08/08 01:18:29;;;;;;;;;4.25;4.00;;;;;22.36;27.84;101712.53;4961835;28;45395;-58
2022/08/08 01:21:06;;;;;;;;;3.00;3.00;;;;;22.35;27.63;101716.16;5015636;28;46085;-58
2022/08/08 01:23:55;;;;;;;;;6.00;5.25;;;;;22.32;27.99;101710.94;4999982;28;46973;-58
2022/08/08 01:26:51;;;;;;;;;4.50;4.50;;;;;22.28;28.11;101709.34;5000291;28;45430;-58
2022/08/08 01:29:50;;;;;;;;;4.50;4.50;;;;;22.27;27.93;101712.13;5015570;28;45335;-58
2022/08/08 01:32:53;;;;;;;;;6.00;4.00;;;;;22.23;28.54;101708.72;5000089;28;45163;-58
2022/08/08 01:35:46;;;;;;;;;4.75;4.75;;;;;22.17;27.95;101712.53;5000281;28;45411;-59
2022/08/08 01:38:54;;;;;;;;;5.25;4.75;;;;;22.14;28.35;101704.66;4999915;28;45359;-58
2022/08/08 01:41:35;;;;;;;;;4.75;4.50;;;;;22.12;28.79;101708.38;5000147;28;46168;-58
2022/08/08 01:44:04;;;;;;;;;5.00;4.00;;;;;22.09;28.39;101704.03;4999968;28;45454;-57
2022/08/08 01:47:07;;;;;;;;;5.50;4.25;;;;;22.07;28.18;101714.81;5000108;28;45352;-57
2022/08/08 01:50:00;;;;;;;;;3.75;3.00;;;;;22.04;28.39;101714.94;5000938;28;45423;-58
2022/08/08 01:52:50;;;;;;;;;3.00;3.00;;;;;22.02;28.61;101706.09;5016303;28;45330;-57
2022/08/08 01:55:49;;;;;;;;;6.25;5.00;;;;;21.99;28.85;101700.91;4998695;28;45646;-60
2022/08/08 01:58:23;;;;;;;;;4.25;4.00;;;;;21.95;28.89;101698.44;4999918;28;45311;-61
2022/08/08 02:01:04;;;;;;;;;5.25;4.50;;;;;21.93;28.92;101706.56;5014849;28;45321;-61
2022/08/08 02:03:57;;;;;;;;;4.25;4.25;;;;;21.91;28.82;101706.63;4999787;28;45361;-61
2022/08/08 02:06:57;;;;;;;;;7.25;4.00;;;;;21.87;29.03;101698.81;4999836;28;45525;-61
2022/08/08 02:09:44;;;;;;;;;4.50;4.50;;;;;21.84;29.26;101705.16;4999907;28;46537;-61
2022/08/08 02:12:22;;;;;;;;;3.50;3.50;;;;;21.81;29.07;101699.97;4999641;28;45337;-61
2022/08/08 02:15:03;;;;;;;;;7.75;6.00;;;;;21.81;29.24;101712.47;4999737;28;45351;-61
2022/08/08 02:17:39;;;;;;;;;3.00;2.00;;;;;21.79;29.40;101701.00;4999592;28;45179;-62
2022/08/08 02:22:30;;;;;;;;;5.00;4.75;;;;;21.78;29.62;101704.59;4999554;28;45375;-62
2022/08/08 02:23:40;;;;;;;;;4.00;4.00;;;;;21.74;29.08;101698.53;4999300;28;45223;-61
2022/08/08 02:26:16;;;;;;;;;4.00;4.00;;;;;21.72;29.61;101705.72;5003220;28;45401;-62
2022/08/08 02:29:00;;;;;;;;;4.50;4.50;;;;;21.71;29.11;101704.88;5003101;28;45476;-62
2022/08/08 02:31:39;;;;;;;;;4.25;4.00;;;;;21.65;29.65;101702.47;5002604;28;46358;-62
2022/08/08 02:34:08;;;;;;;;;4.25;3.75;;;;;21.65;29.81;101699.81;5001258;28;45348;-61
2022/08/08 02:36:36;;;;;;;;;5.50;5.50;;;;;21.64;29.12;101703.41;5002714;28;45473;-62
2022/08/08 02:39:25;;;;;;;;;6.75;6.25;;;;;21.61;29.38;101708.91;5018300;28;45984;-61
2022/08/08 02:42:09;;;;;;;;;5.00;5.00;;;;;21.59;29.83;101710.78;5010595;28;45581;-61
2022/08/08 02:44:40;;;;;;;;;6.25;5.00;;;;;21.57;29.77;101709.97;5037827;28;45372;-61
2022/08/08 02:47:47;;;;;;;;;4.25;4.00;;;;;21.54;29.34;101700.25;5021316;28;45329;-61
2022/08/08 02:50:34;;;;;;;;;5.25;5.25;;;;;21.53;30.16;101701.19;5021117;28;45404;-61
2022/08/08 02:53:20;;;;;;;;;6.25;4.50;;;;;21.50;30.18;101709.34;5002375;28;45423;-62
2022/08/08 02:56:30;;;;;;;;;5.00;5.00;;;;;21.49;30.33;101704.09;5002547;28;45226;-61
2022/08/08 02:59:40;;;;;;;;;6.25;6.25;;;;;21.44;30.30;101709.63;5002617;28;45349;-61
2022/08/08 03:02:11;;;;;;;;;7.50;5.00;;;;;21.42;29.90;101708.81;5010042;28;45258;-62
2022/08/08 03:05:17;;;;;;;;;6.50;5.50;;;;;21.36;30.08;101707.31;5002401;28;46251;-62
2022/08/08 03:08:14;;;;;;;;;7.00;5.00;;;;;21.35;30.50;101710.91;5009332;28;45368;-61
2022/08/08 03:10:39;;;;;;;;;7.25;7.25;;;;;21.34;30.34;101710.97;5022301;28;45366;-61
2022/08/08 03:13:25;;;;;;;;;5.25;4.75;;;;;21.33;30.00;101709.25;5020705;28;46035;-61
2022/08/08 03:15:53;;;;;;;;;6.00;4.00;;;;;21.30;30.49;101710.25;5036764;28;45637;-61
2022/08/08 03:18:36;;;;;;;;;4.50;4.50;;;;;21.25;30.53;101707.75;5021977;28;45246;-62
2022/08/08 03:21:02;;;;;;;;;9.25;6.00;;;;;21.25;30.35;101706.91;5020770;28;45539;-62
2022/08/08 03:23:29;;;;;;;;;5.50;5.50;;;;;21.21;30.46;101708.00;5020275;28;45304;-61
2022/08/08 03:25:56;;;;;;;;;6.25;6.00;;;;;21.16;30.33;101705.50;5021942;28;45685;-61
2022/08/08 03:28:41;;;;;;;;;8.00;7.25;;;;;21.16;30.50;101715.34;5021703;28;45437;-61
2022/08/08 03:33:52;;;;;;;;;5.50;5.50;;;;;21.10;30.42;101716.47;5021822;28;45360;-61
2022/08/08 03:36:17;;;;;;;;;6.25;6.25;;;;;21.07;30.90;101720.13;5036860;28;47151;-61
2022/08/08 03:38:48;;;;;;;;;4.75;4.75;;;;;21.05;30.77;101715.78;5021516;28;45305;-61
2022/08/08 03:41:13;;;;;;;;;6.25;6.25;;;;;21.03;31.20;101714.97;5021690;28;45288;-61
2022/08/08 03:43:38;;;;;;;;;2.75;2.75;;;;;21.01;30.79;101709.72;5020419;28;45425;-61
2022/08/08 03:46:07;;;;;;;;;6.25;6.25;;;;;20.99;31.26;101708.91;5021438;28;45731;-61
2022/08/08 03:48:33;;;;;;;;;8.75;7.25;;;;;20.94;30.98;101711.78;5020357;28;45510;-61
2022/08/08 03:50:58;;;;;;;;;8.00;6.00;;;;;20.98;31.49;101733.00;5021006;28;45481;-60
2022/08/08 03:53:24;;;;;;;;;9.50;7.25;;;;;20.93;31.00;101734.09;5009153;28;45361;-60
2022/08/08 03:55:50;;;;;;;;;6.25;5.75;;;;;20.92;30.98;101726.13;5001516;28;45323;-60
2022/08/08 03:58:22;;;;;;;;;4.50;3.25;;;;;20.90;31.56;101728.00;5001838;28;45334;-60
2022/08/08 04:00:55;;;;;;;;;7.50;5.50;;;;;20.89;31.58;101734.28;5001498;28;45499;-60
2022/08/08 04:03:22;;;;;;;;;8.00;8.00;;;;;20.86;31.67;101732.59;5001378;28;45336;-60
2022/08/08 04:05:48;;;;;;;;;5.00;5.00;;;;;20.86;31.58;101729.91;5001446;28;45333;-60
2022/08/08 04:08:19;;;;;;;;;6.00;5.50;;;;;20.81;31.09;101723.06;5001187;28;45328;-60
2022/08/08 04:10:47;;;;;;;;;6.25;6.25;;;;;20.82;31.06;101727.44;5001702;28;45384;-60
2022/08/08 04:13:13;;;;;;;;;6.25;6.25;;;;;20.82;31.23;101727.44;5001182;28;45459;-60
2022/08/08 04:15:38;;;;;;;;;6.75;6.75;;;;;20.80;31.33;101726.66;5001459;28;45260;-60
2022/08/08 04:18:05;;;;;;;;;7.00;6.00;;;;;20.77;31.26;101723.16;5001281;28;45324;-61
2022/08/08 04:20:30;;;;;;;;;5.50;5.50;;;;;20.74;31.97;101728.66;5016773;28;45265;-61
2022/08/08 04:22:55;;;;;;;;;7.75;7.75;;;;;20.72;31.92;101729.66;5000924;28;45236;-61
2022/08/08 04:25:21;;;;;;;;;6.25;5.50;;;;;20.70;31.42;101729.66;5001500;28;46750;-61
2022/08/08 04:27:46;;;;;;;;;7.00;6.50;;;;;20.66;31.58;101733.38;5001234;28;45267;-61
2022/08/08 04:30:12;;;;;;;;;7.75;6.25;;;;;20.64;31.68;101727.25;5016906;28;45243;-61
2022/08/08 04:32:37;;;;;;;;;6.25;6.25;;;;;20.63;31.77;101726.38;5000962;28;45246;-61
2022/08/08 04:35:03;;;;;;;;;6.75;5.75;;;;;20.60;32.23;101730.97;5001122;28;46318;-61
2022/08/08 04:37:28;;;;;;;;;6.50;6.50;;;;;20.58;31.59;101724.84;4999556;28;45428;-61
2022/08/08 04:39:55;;;;;;;;;8.50;8.00;;;;;20.58;31.85;101731.03;5001413;28;45268;-61
2022/08/08 04:42:21;;;;;;;;;8.25;6.75;;;;;20.53;32.00;101732.16;5000909;28;45585;-61
2022/08/08 04:44:46;;;;;;;;;6.00;6.00;;;;;20.50;32.00;101741.16;5001156;28;45305;-61
2022/08/08 04:47:12;;;;;;;;;5.50;5.50;;;;;20.50;32.14;101746.47;5000172;28;45323;-61
2022/08/08 04:49:37;;;;;;;;;9.00;6.75;;;;;20.49;31.97;101746.56;5003174;28;45275;-60
2022/08/08 04:52:03;;;;;;;;;6.75;6.25;;;;;20.45;32.49;101748.47;5020041;28;45320;-60
2022/08/08 04:54:28;;;;;;;;;6.75;6.75;;;;;20.44;32.12;101746.75;5000799;28;45451;-60
2022/08/08 04:56:54;;;;;;;;;7.00;5.75;;;;;20.45;32.23;101752.03;5000834;28;45348;-60
2022/08/08 04:59:19;;;;;;;;;9.00;8.00;;;;;20.43;32.70;101753.88;5000935;28;45335;-60
2022/08/08 05:01:44;;;;;;;;;9.00;9.00;;;;;20.41;32.50;101746.84;5022663;28;45519;-61
2022/08/08 05:04:10;;;;;;;;;9.50;8.00;;;;;20.40;32.30;101742.44;5000997;28;46111;-61
2022/08/08 05:06:36;;;;;;;;;8.75;8.75;;;;;20.38;32.51;101755.88;5000540;28;45409;-61
2022/08/08 05:09:02;;;;;;;;;7.75;7.00;;;;;20.37;32.52;101762.13;5015947;28;45195;-60
2022/08/08 05:11:27;;;;;;;;;7.00;6.00;;;;;20.35;32.86;101757.78;5012903;28;45484;-60
2022/08/08 05:13:53;;;;;;;;;7.00;7.00;;;;;20.36;32.38;101754.19;5015625;28;48218;-61
2022/08/08 05:16:18;;;;;;;;;7.25;7.25;;;;;20.35;32.74;101761.34;5000541;28;45309;-60
2022/08/08 05:18:44;;;;;;;;;8.50;6.75;;;;;20.35;32.92;101757.78;5000490;28;45425;-60
2022/08/08 05:21:09;;;;;;;;;6.25;5.75;;;;;20.35;32.85;101764.00;5000524;28;45186;-60
2022/08/08 05:23:34;;;;;;;;;8.75;8.25;;;;;20.33;32.98;101760.50;5000001;28;45344;-60
2022/08/08 05:26:02;;;;;;;;;8.50;8.25;;;;;20.33;32.91;101765.84;5000606;28;45623;-60
2022/08/08 05:28:27;;;;;;;;;9.00;9.00;;;;;20.32;32.86;101769.44;5005781;28;45321;-61
2022/08/08 05:30:52;;;;;;;;;5.50;5.50;;;;;20.30;32.71;101773.97;5018772;28;45306;-61
2022/08/08 05:33:18;;;;;;;;;7.00;6.00;;;;;20.29;32.79;101773.09;5019799;28;46263;-61
2022/08/08 05:35:45;;;;;;;;;7.75;7.75;;;;;20.29;33.19;101774.91;5020154;28;45328;-61
2022/08/08 05:38:16;;;;;;;;;8.00;8.00;;;;;20.29;32.91;101772.25;5019840;28;45406;-61
2022/08/08 05:40:48;;;;;;;;;11.25;10.00;;;;;20.28;33.32;101778.50;5019842;28;45465;-62
2022/08/08 05:43:23;;;;;;;;;9.00;9.00;;;;;20.28;32.73;101773.16;5019919;28;45324;-60
2022/08/08 05:45:48;;;;;;;;;9.75;8.00;;;;;20.28;33.14;101779.38;5019671;28;45624;-61
2022/08/08 05:48:16;;;;;;;;;10.25;9.50;;;;;20.28;33.08;101783.84;5020132;28;45333;-60
2022/08/08 05:50:42;;;;;;;;;8.75;8.75;;;;;20.30;32.95;101789.97;5019611;28;45308;-60
2022/08/08 05:53:08;;;;;;;;;11.75;9.25;;;;;20.28;32.95;101779.38;5010678;28;47069;-60
2022/08/08 05:55:34;;;;;;;;;11.00;8.25;;;;;20.28;33.35;101789.19;4999973;28;45350;-60
2022/08/08 05:58:00;;;;;;;;;7.00;6.25;;;;;20.25;33.29;101783.94;5015427;28;45332;-59
2022/08/08 06:00:30;;;;;;;;;8.00;7.50;;;;;20.27;33.41;101793.63;5017776;28;45239;-57
2022/08/08 06:03:11;;;;;;;;;10.50;9.25;;;;;20.28;33.17;101797.19;5010817;28;45365;-57
2022/08/08 06:05:47;;;;;;;;;8.00;7.50;;;;;20.27;33.68;101798.13;5003256;28;45506;-57
2022/08/08 06:08:13;;;;;;;;;7.50;7.50;;;;;20.28;33.15;101799.84;5002060;28;45369;-60
2022/08/08 06:10:40;;;;;;;;;10.25;9.00;;;;;20.28;33.78;101798.03;5001869;28;45543;-59
2022/08/08 06:13:07;;;;;;;;;8.75;7.25;;;;;20.28;33.58;101797.19;5001384;28;46924;-60
2022/08/08 06:15:35;;;;;;;;;10.25;10.25;;;;;20.28;33.92;101799.84;5003506;28;45325;-59
2022/08/08 06:18:02;;;;;;;;;9.00;8.25;;;;;20.34;33.82;101801.41;5003136;28;45445;-59
2022/08/08 06:20:27;;;;;;;;;10.25;8.25;;;;;20.34;33.91;101804.97;5003026;28;46342;-60
2022/08/08 06:22:53;;;;;;;;;9.00;9.00;;;;;20.34;33.24;101798.75;5017988;28;45857;-60
2022/08/08 06:25:19;;;;;;;;;11.50;8.25;;;;;20.33;33.71;101808.56;5003132;28;45390;-60
2022/08/08 06:27:59;;;;;;;;;7.50;7.50;;;;;20.37;33.58;101815.50;5003157;28;45527;-60
2022/08/08 06:30:25;;;;;;;;;9.00;8.50;;;;;20.37;33.52;101820.84;5003036;28;45328;-60
2022/08/08 06:32:55;;;;;;;;;9.25;7.25;;;;;20.40;34.18;101825.19;5002576;28;46315;-60
2022/08/08 06:35:20;;;;;;;;;7.50;7.00;;;;;20.42;33.59;101823.34;5002835;28;45497;-60
2022/08/08 06:38:01;;;;;;;;;10.75;9.25;;;;;20.42;34.21;101824.19;5002703;28;45405;-60
2022/08/08 06:40:30;;;;;;;;;6.00;4.75;;;;;20.45;33.64;101826.78;5002838;28;45467;-60
2022/08/08 06:43:07;;;;;;;;;9.75;9.75;;;;;20.43;34.26;101825.09;5017989;28;46111;-60
2022/08/08 06:45:33;;;;;;;;;12.25;10.50;;;;;20.49;34.23;101834.66;5002608;28;45341;-60
2022/08/08 06:48:00;;;;;;;;;9.75;9.25;;;;;20.50;33.76;101829.25;5002750;28;45423;-60
2022/08/08 06:50:26;;;;;;;;;10.00;10.00;;;;;20.52;34.29;101829.22;5010002;28;45419;-60
2022/08/08 06:52:52;;;;;;;;;11.00;9.75;;;;;20.52;34.34;101818.53;5002476;28;45345;-60
2022/08/08 06:55:20;;;;;;;;;8.00;8.00;;;;;20.56;34.22;101826.34;5002479;28;45190;-60
2022/08/08 06:57:46;;;;;;;;;9.75;9.50;;;;;20.59;34.13;101823.56;5002933;28;45280;-60
2022/08/08 07:00:12;;;;;;;;;11.00;9.00;;;;;20.65;33.74;101835.78;5002396;28;45361;-60
2022/08/08 07:02:44;;;;;;;;;10.25;9.00;;;;;20.68;33.82;101833.00;5015543;28;47749;-61
2022/08/08 07:05:14;;;;;;;;;9.00;8.00;;;;;20.68;34.49;101830.34;5022229;28;45188;-60
2022/08/08 07:08:08;;;;;;;;;6.50;6.00;;;;;20.75;34.15;101839.91;5022200;28;45437;-60
2022/08/08 07:10:41;;;;;;;;;8.50;6.75;;;;;20.81;34.13;101845.91;5020184;28;45954;-60
2022/08/08 07:13:09;;;;;;;;;9.75;8.75;;;;;20.82;34.02;101836.94;5037454;28;47381;-60
2022/08/08 07:15:51;;;;;;;;;10.25;9.25;;;;;20.88;33.96;101842.03;5022131;28;45437;-60
2022/08/08 07:18:53;;;;;;;;;9.00;8.00;;;;;20.93;34.22;101845.44;5021946;28;45356;-60
2022/08/08 07:21:22;;;;;;;;;6.50;6.25;;;;;20.97;33.76;101839.03;5021109;28;45228;-60
2022/08/08 07:23:57;;;;;;;;;9.25;9.25;;;;;20.93;34.38;101837.41;5022160;28;46293;-60
2022/08/08 07:26:25;;;;;;;;;10.25;9.75;;;;;21.05;33.77;101852.91;5037181;28;45353;-60
2022/08/08 07:28:52;;;;;;;;;7.25;6.00;;;;;21.11;33.72;101857.16;5022157;28;45301;-60
2022/08/08 07:31:19;;;;;;;;;9.50;7.25;;;;;21.15;34.41;101855.25;5021608;28;45562;-60
2022/08/08 07:33:47;;;;;;;;;9.50;6.75;;;;;21.18;33.84;101864.00;5020479;28;46664;-60
2022/08/08 07:36:13;;;;;;;;;7.50;7.50;;;;;21.24;34.13;101847.72;5020049;28;45361;-60
2022/08/08 07:38:40;;;;;;;;;8.75;8.00;;;;;21.30;34.32;101854.59;5021982;28;45309;-60
2022/08/08 07:41:08;;;;;;;;;10.00;9.00;;;;;21.33;33.91;101848.25;5021500;28;45187;-60
2022/08/08 07:43:35;;;;;;;;;12.25;8.25;;;;;21.39;33.77;101856.88;5021607;28;46412;-60
2022/08/08 07:46:01;;;;;;;;;8.50;7.75;;;;;21.42;34.25;101854.09;5021237;28;45427;-60
2022/08/08 07:48:26;;;;;;;;;7.75;6.25;;;;;21.50;33.62;101860.91;5021846;28;45309;-60
2022/08/08 07:50:57;;;;;;;;;8.00;6.75;;;;;21.54;33.96;101862.50;5021385;28;45442;-60
2022/08/08 07:53:48;;;;;;;;;8.75;7.50;;;;;21.57;33.98;101857.06;5025465;28;45383;-60
2022/08/08 07:56:16;;;;;;;;;7.00;7.00;;;;;21.67;34.22;101858.41;5001130;28;45352;-60
2022/08/08 07:58:44;;;;;;;;;8.25;7.25;;;;;21.69;33.77;101861.03;5001548;28;45312;-60
2022/08/08 08:01:19;;;;;;;;;7.75;7.75;;;;;21.79;33.86;101861.50;5004118;28;45250;-60
2022/08/08 08:03:54;;;;;;;;;10.00;8.00;;;;;21.86;33.69;101862.94;5004144;28;46217;-61
2022/08/08 08:06:21;;;;;;;;;5.75;5.75;;;;;21.87;33.60;101852.19;5001310;28;45266;-60
2022/08/08 08:09:07;;;;;;;;;7.75;5.75;;;;;21.99;33.76;101863.28;5001448;28;45298;-60
2022/08/08 08:11:36;;;;;;;;;8.25;6.50;;;;;22.02;33.88;101858.63;5001290;28;45277;-60
2022/08/08 08:14:03;;;;;;;;;7.00;7.00;;;;;22.11;33.55;101867.22;5001355;28;46374;-60
2022/08/08 08:16:32;;;;;;;;;6.75;5.50;;;;;22.15;33.73;101853.63;5001127;28;45338;-60
2022/08/08 08:19:00;;;;;;;;;8.00;8.00;;;;;22.25;33.99;101864.78;5001562;28;45423;-60
2022/08/08 08:21:40;;;;;;;;;6.75;6.00;;;;;22.33;33.58;101870.63;4998399;28;45568;-60
2022/08/08 08:24:05;;;;;;;;;4.25;4.25;;;;;22.39;33.62;101864.19;5001306;28;45511;-60
2022/08/08 08:26:31;;;;;;;;;6.25;5.75;;;;;22.47;33.75;101867.34;5001092;28;45277;-60
2022/08/08 08:28:56;;;;;;;;;10.25;7.00;;;;;22.53;33.10;101872.44;5000098;28;45781;-60
2022/08/08 08:31:21;;;;;;;;;7.75;7.75;;;;;22.57;33.24;101851.72;5000555;28;51041;-60
2022/08/08 08:33:47;;;;;;;;;6.00;6.00;;;;;22.66;33.91;101858.47;5000631;28;45385;-60
2022/08/08 08:36:13;;;;;;;;;6.00;6.00;;;;;22.73;33.33;101857.22;5000808;28;45316;-60
2022/08/08 08:38:39;;;;;;;;;6.00;5.25;;;;;22.81;33.32;101862.22;5000120;28;45367;-60
2022/08/08 08:41:06;;;;;;;;;5.00;5.00;;;;;22.88;33.42;101863.66;5000760;28;45622;-60
2022/08/08 08:43:34;;;;;;;;;5.00;5.00;;;;;22.95;33.09;101867.75;5000935;28;46463;-60
2022/08/08 08:46:00;;;;;;;;;6.50;5.00;;;;;23.04;33.09;101870.00;4999446;28;45323;-60
2022/08/08 08:48:26;;;;;;;;;5.00;5.00;;;;;23.12;33.25;101860.69;5001080;28;45408;-60
2022/08/08 08:50:53;;;;;;;;;10.25;8.25;;;;;23.18;33.10;101861.31;5012465;28;45285;-60
2022/08/08 08:53:19;;;;;;;;;6.25;5.75;;;;;23.27;32.91;101861.78;5010138;28;46137;-60
2022/08/08 08:55:45;;;;;;;;;4.50;4.50;;;;;23.33;32.91;101859.69;5000665;28;45340;-60
2022/08/08 08:58:34;;;;;;;;;6.50;6.50;;;;;23.46;32.79;101864.41;5001410;28;45305;-60
2022/08/08 09:01:01;;;;;;;;;6.50;6.50;;;;;23.51;32.98;101851.66;5001688;28;45226;-60
2022/08/08 09:03:28;;;;;;;;;5.25;5.25;;;;;23.61;32.53;101855.59;5006884;28;46166;-60
2022/08/08 09:05:54;;;;;;;;;4.75;4.75;;;;;23.70;32.56;101851.56;5000705;28;45314;-61
2022/08/08 09:08:26;;;;;;;;;4.75;4.75;;;;;23.80;32.52;101847.44;5000498;28;45301;-60
2022/08/08 09:10:52;;;;;;;;;6.00;6.00;;;;;23.86;32.21;101846.22;5000616;28;45384;-60
2022/08/08 09:13:20;;;;;;;;;6.25;5.25;;;;;23.97;32.25;101851.94;5000408;28;46324;-60
2022/08/08 09:15:46;;;;;;;;;7.75;6.50;;;;;24.08;32.15;101853.19;5000560;28;45320;-60
2022/08/08 09:18:16;;;;;;;;;7.50;6.25;;;;;24.16;32.40;101853.63;5000548;28;45358;-60
2022/08/08 09:20:43;;;;;;;;;3.75;3.75;;;;;24.24;32.31;101848.72;5000345;28;45366;-60
2022/08/08 09:23:10;;;;;;;;;7.00;7.00;;;;;24.30;32.00;101845.69;5000014;28;45311;-62
2022/08/08 09:25:36;;;;;;;;;5.00;5.00;;;;;24.43;31.89;101856.63;4999303;28;45443;-61
2022/08/08 09:28:02;;;;;;;;;7.75;5.00;;;;;24.51;31.92;101845.44;5000431;28;45447;-60
2022/08/08 09:30:32;;;;;;;;;5.25;4.50;;;;;24.62;31.89;101851.09;4999454;28;45231;-60
2022/08/08 09:32:58;;;;;;;;;6.00;4.50;;;;;24.71;31.93;101841.66;5014988;28;47132;-60
2022/08/08 09:35:27;;;;;;;;;5.25;5.25;;;;;24.80;31.81;101843.84;4998800;28;45282;-60
2022/08/08 09:38:00;;;;;;;;;5.00;4.00;;;;;24.92;31.67;101847.66;4999562;28;45271;-61
2022/08/08 09:40:28;;;;;;;;;7.00;6.00;;;;;25.02;31.57;101850.69;5000116;28;45246;-61
2022/08/08 09:43:19;;;;;;;;;5.25;5.00;;;;;25.13;31.54;101840.16;4999899;28;45444;-60
2022/08/08 09:45:59;;;;;;;;;3.50;3.50;;;;;25.24;31.84;101842.19;4988778;28;45320;-61
2022/08/08 09:48:29;;;;;;;;;5.50;5.00;;;;;25.35;31.21;101841.56;4999987;28;45252;-64
2022/08/08 09:50:55;;;;;;;;;5.00;5.00;;;;;25.44;31.09;101841.03;5024268;28;45519;-60
2022/08/08 09:53:21;;;;;;;;;5.00;3.25;;;;;25.58;30.97;101845.59;5010293;28;45420;-60
2022/08/08 09:55:47;;;;;;;;;7.00;6.50;;;;;25.69;30.86;101836.03;5019671;28;45322;-60
2022/08/08 09:58:17;;;;;;;;;5.75;5.25;;;;;25.83;31.05;101844.09;5018569;28;45261;-60
2022/08/08 10:00:45;;;;;;;;;12.00;9.25;;;;;25.96;30.74;101838.81;5019418;28;45416;-60
2022/08/08 10:03:17;;;;;;;;;9.50;9.00;;;;;26.09;30.73;101839.81;5007745;28;45346;-60
2022/08/08 10:05:44;;;;;;;;;9.00;8.00;;;;;26.23;30.97;101843.47;4999633;28;45439;-61
2022/08/08 10:08:09;;;;;;;;;5.00;5.00;;;;;26.28;30.95;101819.81;4999751;28;45346;-61
2022/08/08 10:10:37;;;;;;;;;5.00;5.00;;;;;26.47;30.28;101834.81;4999608;28;45333;-61
2022/08/08 10:13:21;;;;;;;;;3.75;3.75;;;;;26.63;30.06;101842.75;4999844;28;45429;-61
2022/08/08 10:15:51;;;;;;;;;5.25;4.75;;;;;26.75;30.05;101834.78;4999610;28;45235;-61
2022/08/08 10:18:43;;;;;;;;;5.00;5.00;;;;;26.92;29.93;101832.78;4999830;28;45362;-61
2022/08/08 10:21:11;;;;;;;;;3.75;3.75;;;;;27.04;29.96;101823.00;4997143;28;45175;-61
2022/08/08 10:23:45;;;;;;;;;5.75;5.75;;;;;27.21;29.55;101825.41;4998235;28;46348;-61
2022/08/08 10:26:30;;;;;;;;;3.00;3.00;;;;;27.40;29.42;101825.06;4999550;28;45345;-61
2022/08/08 10:29:03;;;;;;;;;5.00;5.00;;;;;27.56;29.11;101814.06;4999724;28;45297;-61
2022/08/08 10:34:17;;;;;;;;;5.00;4.00;;;;;27.93;29.50;101820.56;4999491;28;45782;-60
2022/08/08 10:36:44;;;;;;;;;4.00;4.00;;;;;28.10;29.57;101814.84;4999286;28;45363;-60
2022/08/08 10:39:15;;;;;;;;;3.25;3.25;;;;;28.31;29.14;101814.25;4999697;28;45377;-60
2022/08/08 10:41:44;;;;;;;;;4.25;4.00;;;;;28.60;29.34;101822.91;4999439;28;45450;-60
2022/08/08 10:44:11;;;;;;;;;6.50;6.00;;;;;28.97;29.24;101813.94;4999200;28;45333;-60
2022/08/08 10:46:37;;;;;;;;;0.75;0.75;;;;;29.43;29.43;101813.09;5001943;28;45240;-60
2022/08/08 10:49:02;;;;;;;;;4.50;4.50;;;;;29.96;29.78;101812.63;5002720;28;45252;-58
2022/08/08 10:51:34;;;;;;;;;5.75;4.75;;;;;30.53;29.97;101815.28;5019116;28;45157;-60
2022/08/08 10:53:59;;;;;;;;;2.75;2.75;;;;;31.17;29.62;101815.44;5006752;28;45363;-59
2022/08/08 10:56:25;;;;;;;;;3.75;3.50;;;;;31.78;29.02;101812.00;5001352;28;45330;-60
2022/08/08 10:58:58;;;;;;;;;3.75;3.75;;;;;32.39;29.27;101812.97;5002732;28;45178;-60
2022/08/08 11:01:28;;;;;;;;;4.00;4.00;;;;;32.96;28.54;101821.38;5022220;28;45482;-60
2022/08/08 11:03:57;;;;;;;;;4.00;3.75;;;;;33.52;28.66;101817.06;5005232;28;46175;-60
2022/08/08 11:06:28;;;;;;;;;5.00;4.00;;;;;34.10;28.26;101819.72;5002136;28;45377;-61
2022/08/08 11:09:05;;;;;;;;;5.00;4.50;;;;;34.72;27.96;101822.69;5017750;28;45333;-61
2022/08/08 11:11:57;;;;;;;;;20.00;19.25;;;;;35.42;27.79;101818.38;5002208;28;45522;-61
2022/08/08 11:14:22;;;;;;;;;4.25;4.25;;;;;35.98;27.45;101813.44;4999508;28;47062;-61
2022/08/08 11:16:48;;;;;;;;;7.00;6.00;;;;;36.43;26.68;101812.25;5002093;28;45259;-61
2022/08/08 11:19:15;;;;;;;;;3.25;3.25;;;;;36.97;26.50;101818.31;5002450;28;45185;-60
2022/08/08 11:21:44;;;;;;;;;3.00;2.75;;;;;37.38;26.28;101821.91;5001813;28;45556;-61
2022/08/08 11:24:10;;;;;;;;;3.00;3.00;;;;;37.78;25.51;101818.41;5001882;28;46423;-61
2022/08/08 11:26:39;;;;;;;;;4.25;4.25;;;;;38.21;24.89;101817.06;5001961;28;45209;-60
2022/08/08 11:29:06;;;;;;;;;2.25;2.25;;;;;38.63;25.00;101816.81;5002304;28;45218;-60
2022/08/08 11:31:38;;;;;;;;;4.00;3.50;;;;;38.99;24.86;101811.59;5001728;28;45345;-60
2022/08/08 11:34:05;;;;;;;;;6.75;3.25;;;;;39.33;24.47;101818.53;5001909;28;45181;-60
2022/08/08 11:36:32;;;;;;;;;3.00;1.00;;;;;39.65;23.97;101811.00;5001680;28;45331;-60
2022/08/08 11:38:58;;;;;;;;;3.00;3.00;;;;;39.96;23.63;101814.56;5002059;28;45372;-60
2022/08/08 11:41:24;;;;;;;;;3.50;3.00;;;;;40.24;23.20;101812.00;5001656;28;45392;-60
2022/08/08 11:43:50;;;;;;;;;2.00;2.00;;;;;40.52;23.18;101810.38;5001902;28;45440;-59
2022/08/08 11:46:16;;;;;;;;;2.25;2.25;;;;;40.77;22.52;101808.13;5001532;28;45457;-60
2022/08/08 11:48:42;;;;;;;;;2.00;2.00;;;;;41.03;22.89;101810.28;5002039;28;45229;-60
2022/08/08 11:51:09;;;;;;;;;1.50;1.50;;;;;41.25;22.35;101804.75;5015501;28;45441;-60
2022/08/08 11:53:35;;;;;;;;;3.00;3.00;;;;;41.40;22.20;101796.38;5008778;28;46565;-60
2022/08/08 11:56:00;;;;;;;;;1.25;1.25;;;;;41.54;21.53;101794.56;5001462;28;45384;-60
2022/08/08 11:58:34;;;;;;;;;2.00;2.00;;;;;41.64;21.62;101797.81;5001808;28;45606;-60